createdAt,value
2023-04-01T00:00:31.417Z,82.32
2023-04-01T00:01:33.584Z,82.39
2023-04-01T00:02:35.828Z,82.61
2023-04-01T00:03:38.249Z,82.66
2023-04-01T00:04:40.662Z,82.70
2023-04-01T00:05:42.838Z,82.79
2023-04-01T00:06:45.095Z,82.83
2023-04-01T00:07:47.489Z,82.88
2023-04-01T00:08:49.560Z,82.86
2023-04-01T00:09:51.890Z,82.85
2023-04-01T00:10:54.368Z,82.83
2023-04-01T00:11:56.509Z,82.81
2023-04-01T00:12:59.142Z,82.82
2023-04-01T00:14:01.316Z,82.90
2023-04-01T00:16:21.851Z,83.02
2023-04-01T00:17:19.820Z,83.18
2023-04-01T00:18:22.694Z,83.17
2023-04-01T00:19:24.886Z,83.19
2023-04-01T00:20:27.889Z,83.17
2023-04-01T00:21:30.051Z,83.14
2023-04-01T00:22:32.212Z,83.15
2023-04-01T00:23:34.613Z,83.17
2023-04-01T00:24:36.986Z,83.14
2023-04-01T00:25:39.231Z,83.12
2023-04-01T00:26:41.280Z,83.08
2023-04-01T00:27:43.390Z,83.07
2023-04-01T00:28:45.750Z,83.08
2023-04-01T00:29:48.532Z,83.16
2023-04-01T00:30:51.377Z,83.15
2023-04-01T00:31:54.043Z,83.17
2023-04-01T00:32:57.041Z,83.17
2023-04-01T00:33:59.363Z,83.18
2023-04-01T00:35:01.686Z,83.19
2023-04-01T00:36:15.453Z,83.16
2023-04-01T00:37:18.830Z,83.16
2023-04-01T00:38:21.542Z,83.14
2023-04-01T00:39:23.798Z,83.14
2023-04-01T00:40:36.308Z,83.13
2023-04-01T00:41:38.478Z,83.14
2023-04-01T00:42:40.747Z,83.07
2023-04-01T00:43:45.107Z,83.13
2023-04-01T00:44:55.280Z,83.18
2023-04-01T00:45:58.644Z,83.13
2023-04-01T00:47:01.701Z,83.10
2023-04-01T00:48:14.165Z,83.05
2023-04-01T00:49:20.468Z,83.02
2023-04-01T00:50:25.193Z,82.97
2023-04-01T00:51:30.591Z,82.95
2023-04-01T00:52:33.261Z,82.94
2023-04-01T00:53:39.087Z,82.93
2023-04-01T00:54:44.948Z,82.98
2023-04-01T00:55:56.616Z,83.02
2023-04-01T00:57:08.402Z,83.04
2023-04-01T00:58:14.353Z,83.05
2023-04-01T00:59:22.961Z,83.06
2023-04-01T01:00:25.954Z,83.05
2023-04-01T01:01:29.954Z,83.05
2023-04-01T01:02:35.080Z,83.12
2023-04-01T01:03:37.683Z,83.12
2023-04-01T01:04:40.646Z,83.16
2023-04-01T01:06:21.443Z,83.20
2023-04-01T01:07:43.912Z,83.21
2023-04-01T01:09:01.891Z,83.15
2023-04-01T01:11:47.615Z,83.09
2023-04-01T01:13:19.456Z,83.11
2023-04-01T01:14:56.236Z,83.10
2023-04-01T01:16:08.499Z,83.04
2023-04-01T01:17:32.349Z,83.04
2023-04-01T01:20:15.644Z,82.95
2023-04-01T01:21:52.135Z,82.90
2023-04-01T01:23:10.417Z,82.92
2023-04-01T01:24:17.143Z,82.87
2023-04-01T01:25:35.145Z,82.80
2023-04-01T01:28:11.444Z,82.73
2023-04-01T01:29:35.642Z,82.79
2023-04-01T01:30:41.782Z,82.87
2023-04-01T01:31:54.314Z,82.89
2023-04-01T01:33:15.647Z,82.91
2023-04-01T01:34:24.551Z,82.90
2023-04-01T01:35:41.661Z,82.90
2023-04-01T01:36:49.551Z,82.95
2023-04-01T01:37:55.380Z,82.88
2023-04-01T01:38:59.074Z,82.86
2023-04-01T01:40:07.875Z,82.87
2023-04-01T01:41:15.326Z,82.88
2023-04-01T01:42:19.154Z,82.82
2023-04-01T01:43:43.668Z,82.76
2023-04-01T01:44:49.693Z,82.69
2023-04-01T01:45:55.587Z,82.65
2023-04-01T01:46:58.979Z,82.52
2023-04-01T01:48:05.408Z,82.53
2023-04-01T01:49:10.181Z,82.50
2023-04-01T01:50:15.164Z,82.51
2023-04-01T01:51:20.432Z,82.53
2023-04-01T01:52:23.568Z,82.53
2023-04-01T01:53:25.883Z,82.54
2023-04-01T01:54:28.038Z,82.56
2023-04-01T01:56:46.469Z,82.71
2023-04-01T01:57:49.509Z,82.88
2023-04-01T01:58:56.378Z,82.87
2023-04-01T02:01:19.666Z,82.93
2023-04-01T02:02:23.925Z,83.05
2023-04-01T02:03:29.587Z,83.09
2023-04-01T02:04:32.637Z,83.12
2023-04-01T02:05:36.016Z,83.06
2023-04-01T02:06:52.590Z,83.11
2023-04-01T02:08:10.611Z,83.11
2023-04-01T02:09:13.491Z,83.04
2023-04-01T02:10:16.296Z,83.04
2023-04-01T02:11:22.205Z,83.05
2023-04-01T02:12:25.432Z,82.99
2023-04-01T02:13:34.333Z,82.90
2023-04-01T02:14:43.112Z,82.88
2023-04-01T02:15:49.501Z,82.84
2023-04-01T02:17:04.515Z,82.74
2023-04-01T02:18:08.073Z,82.73
2023-04-01T02:19:13.041Z,82.72
2023-04-01T02:20:19.335Z,82.72
2023-04-01T02:21:24.456Z,82.68
2023-04-01T02:22:35.468Z,82.67
2023-04-01T02:23:39.214Z,82.62
2023-04-01T02:24:44.049Z,82.64
2023-04-01T02:25:48.625Z,82.60
2023-04-01T02:26:52.097Z,82.54
2023-04-01T02:27:57.689Z,82.52
2023-04-01T02:29:02.358Z,82.46
2023-04-01T02:30:06.488Z,82.43
2023-04-01T02:31:11.387Z,82.43
2023-04-01T02:32:15.208Z,82.43
2023-04-01T02:33:19.212Z,82.50
2023-04-01T02:34:23.875Z,82.49
2023-04-01T02:35:26.829Z,82.46
2023-04-01T02:36:29.735Z,82.51
2023-04-01T02:37:33.957Z,82.52
2023-04-01T02:38:36.709Z,82.53
2023-04-01T02:39:39.286Z,82.53
2023-04-01T02:40:53.863Z,82.56
2023-04-01T02:41:56.022Z,82.56
2023-04-01T02:42:58.975Z,82.53
2023-04-01T02:44:01.200Z,82.50
2023-04-01T02:46:19.089Z,82.47
2023-04-01T02:47:21.804Z,82.52
2023-04-01T02:48:26.316Z,82.54
2023-04-01T02:49:28.896Z,82.53
2023-04-01T02:50:31.163Z,82.51
2023-04-01T02:51:34.454Z,82.53
2023-04-01T02:52:36.669Z,82.52
2023-04-01T02:53:38.974Z,82.51
2023-04-01T02:54:41.048Z,82.49
2023-04-01T02:55:43.446Z,82.49
2023-04-01T02:56:47.000Z,82.48
2023-04-01T02:57:49.413Z,82.49
2023-04-01T02:58:51.602Z,82.45
2023-04-01T02:59:53.784Z,82.44
2023-04-01T03:00:56.812Z,82.43
2023-04-01T03:01:59.175Z,82.39
2023-04-01T03:03:01.845Z,82.37
2023-04-01T03:04:05.179Z,82.36
2023-04-01T03:05:07.895Z,82.34
2023-04-01T03:06:13.156Z,82.31
2023-04-01T03:07:15.561Z,82.31
2023-04-01T03:08:18.945Z,82.28
2023-04-01T03:09:21.656Z,82.30
2023-04-01T03:10:24.122Z,82.34
2023-04-01T03:11:26.374Z,82.37
2023-04-01T03:12:29.146Z,82.40
2023-04-01T03:13:31.394Z,82.42
2023-04-01T03:14:33.521Z,82.47
2023-04-01T03:15:35.762Z,82.51
2023-04-01T03:16:38.568Z,82.53
2023-04-01T03:17:43.076Z,82.51
2023-04-01T03:18:45.618Z,82.48
2023-04-01T03:19:48.648Z,82.39
2023-04-01T03:20:51.629Z,82.36
2023-04-01T03:21:53.889Z,82.29
2023-04-01T03:22:56.461Z,82.21
2023-04-01T03:23:58.602Z,82.22
2023-04-01T03:25:00.865Z,82.15
2023-04-01T03:26:03.338Z,82.18
2023-04-01T03:27:05.523Z,82.21
2023-04-01T03:28:07.776Z,82.22
2023-04-01T03:29:10.059Z,82.26
2023-04-01T03:30:12.746Z,82.27
2023-04-01T03:31:16.993Z,82.32
2023-04-01T03:32:21.516Z,82.40
2023-04-01T03:33:24.360Z,82.40
2023-04-01T03:34:26.518Z,82.44
2023-04-01T03:35:28.928Z,82.52
2023-04-01T03:36:32.546Z,82.50
2023-04-01T03:37:34.931Z,82.46
2023-04-01T03:38:37.813Z,82.44
2023-04-01T03:39:40.021Z,82.42
2023-04-01T03:40:45.804Z,82.45
2023-04-01T03:41:48.306Z,82.47
2023-04-01T03:42:50.622Z,82.48
2023-04-01T03:43:54.244Z,82.52
2023-04-01T03:44:56.380Z,82.53
2023-04-01T03:45:58.897Z,82.50
2023-04-01T03:47:01.580Z,82.50
2023-04-01T03:48:04.742Z,82.55
2023-04-01T03:49:09.347Z,82.54
2023-04-01T03:50:11.669Z,82.54
2023-04-01T03:51:15.366Z,82.52
2023-04-01T03:52:17.494Z,82.51
2023-04-01T03:53:19.623Z,82.51
2023-04-01T03:54:22.569Z,82.55
2023-04-01T03:55:24.850Z,82.55
2023-04-01T03:56:27.225Z,82.60
2023-04-01T03:57:31.604Z,82.59
2023-04-01T03:58:35.586Z,82.55
2023-04-01T03:59:37.971Z,82.47
2023-04-01T04:00:40.891Z,82.46
2023-04-01T04:01:46.910Z,82.41
2023-04-01T04:02:49.314Z,82.35
2023-04-01T04:03:54.374Z,82.27
2023-04-01T04:04:57.532Z,82.24
2023-04-01T04:06:00.231Z,82.21
2023-04-01T04:07:02.842Z,82.12
2023-04-01T04:08:06.951Z,82.10
2023-04-01T04:09:09.228Z,82.10
2023-04-01T04:10:12.135Z,82.08
2023-04-01T04:11:14.226Z,82.05
2023-04-01T04:12:17.583Z,82.07
2023-04-01T04:13:19.878Z,82.11
2023-04-01T04:14:24.195Z,82.08
2023-04-01T04:15:27.074Z,82.04
2023-04-01T04:16:29.869Z,82.10
2023-04-01T04:17:34.024Z,82.09
2023-04-01T04:18:37.709Z,82.07
2023-04-01T04:19:39.924Z,82.08
2023-04-01T04:20:46.344Z,82.12
2023-04-01T04:21:48.666Z,82.12
2023-04-01T04:22:50.962Z,82.08
2023-04-01T04:23:53.117Z,82.08
2023-04-01T04:24:55.691Z,82.10
2023-04-01T04:27:12.435Z,82.09
2023-04-01T04:28:16.661Z,82.05
2023-04-01T04:29:18.917Z,82.09
2023-04-01T04:30:21.550Z,82.11
2023-04-01T04:31:25.558Z,82.10
2023-04-01T04:32:30.025Z,82.03
2023-04-01T04:33:34.391Z,81.99
2023-04-01T04:34:37.280Z,81.99
2023-04-01T04:35:39.637Z,82.02
2023-04-01T04:36:43.425Z,82.07
2023-04-01T04:37:45.533Z,82.11
2023-04-01T04:38:48.633Z,82.15
2023-04-01T04:39:51.123Z,82.12
2023-04-01T04:40:53.741Z,82.12
2023-04-01T04:41:56.031Z,82.09
2023-04-01T04:42:58.300Z,82.06
2023-04-01T04:44:01.149Z,82.00
2023-04-01T04:45:03.883Z,82.04
2023-04-01T04:46:11.594Z,82.05
2023-04-01T04:47:14.759Z,82.08
2023-04-01T04:48:17.343Z,82.05
2023-04-01T04:49:20.726Z,82.01
2023-04-01T04:50:24.123Z,81.98
2023-04-01T04:51:26.462Z,81.98
2023-04-01T04:52:28.578Z,81.97
2023-04-01T04:53:31.235Z,82.03
2023-04-01T04:54:33.502Z,82.03
2023-04-01T04:55:37.923Z,82.04
2023-04-01T04:56:57.878Z,82.04
2023-04-01T04:58:01.323Z,82.02
2023-04-01T04:59:04.256Z,81.96
2023-04-01T05:00:10.070Z,82.00
2023-04-01T05:01:26.735Z,81.90
2023-04-01T05:02:29.543Z,81.78
2023-04-01T05:03:33.054Z,81.71
2023-04-01T05:04:37.334Z,81.65
2023-04-01T05:05:41.020Z,81.54
2023-04-01T05:06:44.551Z,81.49
2023-04-01T05:07:46.762Z,81.50
2023-04-01T05:08:49.168Z,81.51
2023-04-01T05:09:52.437Z,81.60
2023-04-01T05:10:54.942Z,81.60
2023-04-01T05:11:57.189Z,81.61
2023-04-01T05:13:00.060Z,81.59
2023-04-01T05:14:03.542Z,81.60
2023-04-01T05:15:08.187Z,81.55
2023-04-01T05:17:22.502Z,81.65
2023-04-01T05:18:24.719Z,81.76
2023-04-01T05:19:26.992Z,81.72
2023-04-01T05:20:29.889Z,81.76
2023-04-01T05:21:32.848Z,81.82
2023-04-01T05:22:35.136Z,81.85
2023-04-01T05:23:38.194Z,82.04
2023-04-01T05:24:40.519Z,82.05
2023-04-01T05:25:43.573Z,82.04
2023-04-01T05:26:47.332Z,82.04
2023-04-01T05:27:50.126Z,81.97
2023-04-01T05:28:52.958Z,81.94
2023-04-01T05:29:57.081Z,81.88
2023-04-01T05:31:03.063Z,81.98
2023-04-01T05:32:13.078Z,81.99
2023-04-01T05:33:15.799Z,81.97
2023-04-01T05:34:18.590Z,81.89
2023-04-01T05:35:21.317Z,81.82
2023-04-01T05:36:23.798Z,81.78
2023-04-01T05:37:26.592Z,81.81
2023-04-01T05:38:29.997Z,81.84
2023-04-01T05:39:32.282Z,81.86
2023-04-01T05:40:34.717Z,81.87
2023-04-01T05:41:39.157Z,81.74
2023-04-01T05:42:41.329Z,81.74
2023-04-01T05:43:43.618Z,81.76
2023-04-01T05:45:59.131Z,81.73
2023-04-01T05:47:06.034Z,81.70
2023-04-01T05:48:08.434Z,81.60
2023-04-01T05:49:12.682Z,81.54
2023-04-01T05:51:24.937Z,81.67
2023-04-01T05:52:27.205Z,81.73
2023-04-01T05:53:29.413Z,81.75
2023-04-01T05:54:31.703Z,81.72
2023-04-01T05:55:36.117Z,81.54
2023-04-01T05:56:38.855Z,81.30
2023-04-01T05:57:41.159Z,81.18
2023-04-01T05:58:44.070Z,81.06
2023-04-01T05:59:46.506Z,81.00
2023-04-01T06:00:56.063Z,81.00
2023-04-01T06:01:53.362Z,80.99
2023-04-01T06:04:06.293Z,81.06
2023-04-01T06:05:23.280Z,81.27
2023-04-01T06:06:28.548Z,81.16
2023-04-01T06:07:32.774Z,81.00
2023-04-01T06:09:45.616Z,80.72
2023-04-01T06:10:57.574Z,80.77
2023-04-01T06:14:01.187Z,80.76
2023-04-01T06:16:56.547Z,80.53
2023-04-01T06:19:23.245Z,80.74
2023-04-01T06:20:37.782Z,80.86
2023-04-01T06:21:58.461Z,80.87
2023-04-01T06:23:21.387Z,80.74
2023-04-01T06:25:48.080Z,80.33
2023-04-01T06:27:06.090Z,80.15
2023-04-01T06:28:39.410Z,80.11
2023-04-01T06:30:11.111Z,80.01
2023-04-01T06:31:35.101Z,79.89
2023-04-01T06:32:44.306Z,80.06
2023-04-01T06:33:50.245Z,80.08
2023-04-01T06:35:17.702Z,80.15
2023-04-01T06:36:50.194Z,80.12
2023-04-01T06:38:18.735Z,80.01
2023-04-01T06:39:58.510Z,80.01
2023-04-01T06:42:42.105Z,79.76
2023-04-01T06:45:38.634Z,79.62
2023-04-01T06:47:26.439Z,79.39
2023-04-01T06:48:59.953Z,79.42
2023-04-01T06:51:50.608Z,79.13
2023-04-01T06:53:15.098Z,79.21
2023-04-01T06:54:39.420Z,79.23
2023-04-01T06:57:26.513Z,79.29
2023-04-01T06:58:39.253Z,79.44
2023-04-01T06:59:42.982Z,79.48
2023-04-01T07:00:48.814Z,79.45
2023-04-01T07:01:55.195Z,79.56
2023-04-01T07:03:19.504Z,79.63
2023-04-01T07:04:34.769Z,79.53
2023-04-01T07:05:38.091Z,79.52
2023-04-01T07:08:18.797Z,79.73
2023-04-01T07:09:25.272Z,79.95
2023-04-01T07:12:05.366Z,79.62
2023-04-01T07:13:27.807Z,79.46
2023-04-01T07:14:39.889Z,79.49
2023-04-01T07:15:45.945Z,79.49
2023-04-01T07:18:20.264Z,79.34
2023-04-01T07:19:42.289Z,79.33
2023-04-01T07:20:48.156Z,79.25
2023-04-01T07:22:03.017Z,79.19
2023-04-01T07:23:13.758Z,79.14
2023-04-01T07:25:45.679Z,78.97
2023-04-01T07:28:09.564Z,79.10
2023-04-01T07:29:15.007Z,79.25
2023-04-01T07:30:24.912Z,79.18
2023-04-01T07:31:37.938Z,79.32
2023-04-01T07:32:43.869Z,79.53
2023-04-01T07:35:19.584Z,79.27
2023-04-01T07:36:32.507Z,79.09
2023-04-01T07:39:06.342Z,78.76
2023-04-01T07:40:23.546Z,78.91
2023-04-01T07:43:13.175Z,79.11
2023-04-01T07:44:20.925Z,79.32
2023-04-01T07:46:58.196Z,79.43
2023-04-01T07:48:06.945Z,78.96
2023-04-01T07:49:31.142Z,78.63
2023-04-01T07:50:43.480Z,78.25
2023-04-01T07:52:06.949Z,78.07
2023-04-01T07:53:20.707Z,78.07
2023-04-01T07:56:14.763Z,78.48
2023-04-01T07:57:50.890Z,78.63
2023-04-01T07:59:15.138Z,78.49
2023-04-01T08:00:38.592Z,78.27
2023-04-01T08:02:10.945Z,78.44
2023-04-01T08:03:36.342Z,78.70
2023-04-01T08:04:47.317Z,78.69
2023-04-01T08:07:11.291Z,78.61
2023-04-01T08:08:21.986Z,78.64
2023-04-01T08:09:42.800Z,78.64
2023-04-01T08:12:37.429Z,78.39
2023-04-01T08:14:08.997Z,78.48
2023-04-01T08:15:17.939Z,78.51
2023-04-01T08:16:37.817Z,78.54
2023-04-01T08:17:47.557Z,78.52
2023-04-01T08:19:05.801Z,78.31
2023-04-01T08:21:37.558Z,78.34
2023-04-01T08:22:51.847Z,78.30
2023-04-01T08:24:02.987Z,78.15
2023-04-01T08:25:08.683Z,78.14
2023-04-01T08:26:28.879Z,78.20
2023-04-01T08:27:40.978Z,78.34
2023-04-01T08:29:06.783Z,78.40
2023-04-01T08:31:40.536Z,78.15
2023-04-01T08:32:46.992Z,78.20
2023-04-01T08:33:51.862Z,78.15
2023-04-01T08:35:00.985Z,77.77
2023-04-01T08:36:21.339Z,77.64
2023-04-01T08:37:31.819Z,77.54
2023-04-01T08:38:53.503Z,77.51
2023-04-01T08:41:27.909Z,77.49
2023-04-01T08:43:07.587Z,77.34
2023-04-01T08:45:47.788Z,77.19
2023-04-01T08:46:56.590Z,77.08
2023-04-01T08:48:17.334Z,77.17
2023-04-01T08:49:35.680Z,76.97
2023-04-01T08:52:28.564Z,76.47
2023-04-01T08:55:30.987Z,76.11
2023-04-01T08:56:41.998Z,76.15
2023-04-01T08:58:23.453Z,76.11
2023-04-01T08:59:43.646Z,76.11
2023-04-01T09:02:16.725Z,76.13
2023-04-01T09:05:23.751Z,76.35
2023-04-01T09:06:36.041Z,75.68
2023-04-01T09:07:54.241Z,75.39
2023-04-01T09:09:04.280Z,75.20
2023-04-01T09:10:33.233Z,75.12
2023-04-01T09:11:53.197Z,74.98
2023-04-01T09:13:23.238Z,74.78
2023-04-01T09:16:08.088Z,74.73
2023-04-01T09:17:30.588Z,74.86
2023-04-01T09:18:46.281Z,74.96
2023-04-01T09:21:54.124Z,74.53
2023-04-01T09:23:12.093Z,74.63
2023-04-01T09:24:44.306Z,74.13
2023-04-01T09:26:08.216Z,73.65
2023-04-01T09:28:53.087Z,73.77
2023-04-01T09:30:22.009Z,73.75
2023-04-01T09:31:34.418Z,73.62
2023-04-01T09:33:20.057Z,73.76
2023-04-01T09:34:38.069Z,73.86
2023-04-01T09:35:49.771Z,73.53
2023-04-01T09:37:18.176Z,73.65
2023-04-01T09:38:23.332Z,73.84
2023-04-01T09:39:35.196Z,73.76
2023-04-01T09:41:00.071Z,73.29
2023-04-01T09:42:29.171Z,72.89
2023-04-01T09:48:01.943Z,72.32
2023-04-01T09:49:26.632Z,72.44
2023-04-01T09:50:36.010Z,72.11
2023-04-01T09:51:58.821Z,71.64
2023-04-01T09:53:13.987Z,72.04
2023-04-01T09:54:25.792Z,71.63
2023-04-01T09:56:05.699Z,71.79
2023-04-01T09:57:19.255Z,71.87
2023-04-01T10:00:13.856Z,71.12
2023-04-01T10:01:44.599Z,71.05
2023-04-01T10:02:52.921Z,70.84
2023-04-01T10:04:09.700Z,70.54
2023-04-01T10:05:38.457Z,70.56
2023-04-01T10:06:57.389Z,70.64
2023-04-01T10:08:23.338Z,71.00
2023-04-01T10:09:45.064Z,71.01
2023-04-01T10:12:39.010Z,70.65
2023-04-01T10:14:17.046Z,71.23
2023-04-01T10:15:47.371Z,70.92
2023-04-01T10:17:29.819Z,70.56
2023-04-01T10:18:59.545Z,70.22
2023-04-01T10:20:12.586Z,70.20
2023-04-01T10:21:37.803Z,70.40
2023-04-01T10:23:00.391Z,70.66
2023-04-01T10:24:26.083Z,70.95
2023-04-01T10:25:50.113Z,70.69
2023-04-01T10:26:57.844Z,70.70
2023-04-01T10:28:25.314Z,70.61
2023-04-01T10:31:19.592Z,71.18
2023-04-01T10:34:07.062Z,70.32
2023-04-01T10:35:30.341Z,69.90
2023-04-01T10:36:48.777Z,69.64
2023-04-01T10:39:58.258Z,69.33
2023-04-01T10:41:30.164Z,69.08
2023-04-01T10:44:55.453Z,68.01
2023-04-01T10:47:39.452Z,67.35
2023-04-01T10:49:19.287Z,67.50
2023-04-01T10:51:56.978Z,67.01
2023-04-01T10:53:13.536Z,66.70
2023-04-01T10:54:39.989Z,67.31
2023-04-01T10:56:09.810Z,67.19
2023-04-01T10:58:06.959Z,67.01
2023-04-01T10:59:38.587Z,66.79
2023-04-01T11:02:53.061Z,66.91
2023-04-01T11:04:28.933Z,66.29
2023-04-01T11:06:09.783Z,66.05
2023-04-01T11:07:39.034Z,65.58
2023-04-01T11:09:04.949Z,65.84
2023-04-01T11:10:31.523Z,65.90
2023-04-01T11:11:49.952Z,65.50
2023-04-01T11:13:27.857Z,66.19
2023-04-01T11:14:52.323Z,66.60
2023-04-01T11:16:22.411Z,66.18
2023-04-01T11:17:54.059Z,65.67
2023-04-01T11:19:02.883Z,65.65
2023-04-01T11:20:33.521Z,65.02
2023-04-01T11:23:07.100Z,65.39
2023-04-01T11:29:20.008Z,65.42
2023-04-01T11:30:35.437Z,65.04
2023-04-01T11:31:53.172Z,64.21
2023-04-01T11:33:04.747Z,63.82
2023-04-01T11:34:28.693Z,63.42
2023-04-01T11:35:50.186Z,63.57
2023-04-01T11:38:58.180Z,63.37
2023-04-01T11:41:59.711Z,64.16
2023-04-01T11:43:39.228Z,64.01
2023-04-01T11:47:51.940Z,64.72
2023-04-01T11:54:06.665Z,64.94
2023-04-01T11:55:31.367Z,64.84
2023-04-01T11:56:40.764Z,64.90
2023-04-01T11:58:12.616Z,65.26
2023-04-01T11:59:37.206Z,65.45
2023-04-01T12:02:54.562Z,65.64
2023-04-01T12:04:00.720Z,65.62
2023-04-01T12:05:07.148Z,65.01
2023-04-01T12:06:42.222Z,64.89
2023-04-01T12:08:00.437Z,65.22
2023-04-01T12:09:35.989Z,64.92
2023-04-01T12:11:00.453Z,64.78
2023-04-01T12:13:55.106Z,63.57
2023-04-01T12:15:06.114Z,62.82
2023-04-01T12:16:41.165Z,62.96
2023-04-01T12:17:50.714Z,63.22
2023-04-01T12:19:27.523Z,62.96
2023-04-01T12:20:51.084Z,63.51
2023-04-01T12:21:57.340Z,63.01
2023-04-01T12:23:09.405Z,63.79
2023-04-01T12:24:30.066Z,63.79
2023-04-01T12:25:56.108Z,63.51
2023-04-01T12:27:17.186Z,63.50
2023-04-01T12:28:22.958Z,63.58
2023-04-01T12:29:37.749Z,63.55
2023-04-01T12:30:43.606Z,63.30
2023-04-01T12:31:55.409Z,62.97
2023-04-01T12:33:17.052Z,63.07
2023-04-01T12:34:42.793Z,63.53
2023-04-01T12:36:08.494Z,63.69
2023-04-01T12:37:30.033Z,63.96
2023-04-01T12:39:54.798Z,62.99
2023-04-01T12:41:10.171Z,62.98
2023-04-01T12:42:19.442Z,62.93
2023-04-01T12:44:46.455Z,63.23
2023-04-01T12:45:52.397Z,63.37
2023-04-01T12:47:15.285Z,62.43
2023-04-01T12:48:33.562Z,61.95
2023-04-01T12:49:51.617Z,62.00
2023-04-01T12:52:34.210Z,61.83
2023-04-01T12:56:19.516Z,62.18
2023-04-01T12:59:18.371Z,62.18
2023-04-01T13:00:45.027Z,61.75
2023-04-01T13:03:27.270Z,60.33
2023-04-01T13:06:30.484Z,60.57
2023-04-01T13:09:14.021Z,61.92
2023-04-01T13:10:36.894Z,62.39
2023-04-01T13:13:33.104Z,61.65
2023-04-01T13:14:57.113Z,61.47
2023-04-01T13:16:06.516Z,61.03
2023-04-01T13:17:22.030Z,60.76
2023-04-01T13:18:34.064Z,61.02
2023-04-01T13:21:18.838Z,59.45
2023-04-01T13:23:53.415Z,59.14
2023-04-01T13:26:38.511Z,58.99
2023-04-01T13:27:44.466Z,59.46
2023-04-01T13:28:50.772Z,58.84
2023-04-01T13:30:20.935Z,59.19
2023-04-01T13:31:33.009Z,58.77
2023-04-01T13:32:44.724Z,58.53
2023-04-01T13:35:03.400Z,58.99
2023-04-01T13:36:10.802Z,59.29
2023-04-01T13:39:02.750Z,59.84
2023-04-01T13:40:42.785Z,60.02
2023-04-01T13:42:05.117Z,60.27
2023-04-01T13:43:26.605Z,60.57
2023-04-01T13:44:56.535Z,60.97
2023-04-01T13:46:06.008Z,60.68
2023-04-01T13:48:58.846Z,60.96
2023-04-01T13:50:29.663Z,60.83
2023-04-01T13:51:57.838Z,60.96
2023-04-01T13:53:26.626Z,60.83
2023-04-01T13:54:47.616Z,61.04
2023-04-01T13:56:14.603Z,61.03
2023-04-01T13:57:39.625Z,60.81
2023-04-01T13:59:00.230Z,60.68
2023-04-01T14:00:29.358Z,60.56
2023-04-01T14:02:03.396Z,60.59
2023-04-01T14:03:15.426Z,60.68
2023-04-01T14:04:44.095Z,60.26
2023-04-01T14:06:08.104Z,60.33
2023-04-01T14:07:40.125Z,60.82
2023-04-01T14:09:14.450Z,60.91
2023-04-01T14:10:43.386Z,61.09
2023-04-01T14:13:42.457Z,60.53
2023-04-01T14:15:23.797Z,60.73
2023-04-01T14:18:01.370Z,60.64
2023-04-01T14:19:24.068Z,60.68
2023-04-01T14:20:41.822Z,60.20
2023-04-01T14:22:04.351Z,60.41
2023-04-01T14:23:38.349Z,60.58
2023-04-01T14:25:17.573Z,60.47
2023-04-01T14:26:23.798Z,60.19
2023-04-01T14:27:45.970Z,60.41
2023-04-01T14:29:10.154Z,60.58
2023-04-01T14:30:19.166Z,60.41
2023-04-01T14:31:38.593Z,60.08
2023-04-01T14:32:44.458Z,60.51
2023-04-01T14:34:05.381Z,60.67
2023-04-01T14:35:26.001Z,60.69
2023-04-01T14:38:20.123Z,60.50
2023-04-01T14:39:42.595Z,60.33
2023-04-01T14:41:06.242Z,60.20
2023-04-01T14:42:29.862Z,60.37
2023-04-01T14:43:56.765Z,60.17
2023-04-01T14:45:11.841Z,60.42
2023-04-01T14:47:53.286Z,60.43
2023-04-01T14:49:17.691Z,60.60
2023-04-01T14:50:26.654Z,60.56
2023-04-01T14:51:32.920Z,60.67
2023-04-01T14:52:38.708Z,60.61
2023-04-01T14:53:48.073Z,60.75
2023-04-01T14:54:52.281Z,60.90
2023-04-01T14:57:12.073Z,61.11
2023-04-01T14:58:18.295Z,61.09
2023-04-01T14:59:27.839Z,61.16
2023-04-01T15:00:33.811Z,61.19
2023-04-01T15:01:58.210Z,61.16
2023-04-01T15:03:16.502Z,61.10
2023-04-01T15:04:37.435Z,61.00
2023-04-01T15:05:52.222Z,61.25
2023-04-01T15:07:22.027Z,61.47
2023-04-01T15:08:30.672Z,61.97
2023-04-01T15:09:54.074Z,62.97
2023-04-01T15:12:36.399Z,64.53
2023-04-01T15:15:41.357Z,65.99
2023-04-01T15:19:48.053Z,68.37
2023-04-01T15:21:26.634Z,69.06
2023-04-01T15:22:33.502Z,69.68
2023-04-01T15:26:47.476Z,71.08
2023-04-01T15:27:58.849Z,71.76
2023-04-01T15:29:28.603Z,72.39
2023-04-01T15:30:41.574Z,72.72
2023-04-01T15:31:53.195Z,73.38
2023-04-01T15:33:25.482Z,73.87
2023-04-01T15:36:04.522Z,74.50
2023-04-01T15:37:31.371Z,74.84
2023-04-01T15:38:37.606Z,74.90
2023-04-01T15:39:49.244Z,74.95
2023-04-01T15:40:58.726Z,75.08
2023-04-01T15:42:16.692Z,75.15
2023-04-01T15:44:46.397Z,75.39
2023-04-01T15:46:12.424Z,75.58
2023-04-01T15:47:36.001Z,75.48
2023-04-01T15:48:56.646Z,75.41
2023-04-01T15:50:23.485Z,75.16
2023-04-01T15:51:44.029Z,75.12
2023-04-01T15:53:06.881Z,74.96
2023-04-01T15:54:27.957Z,74.96
2023-04-01T15:55:50.849Z,75.03
2023-04-01T15:57:11.818Z,75.04
2023-04-01T15:58:35.275Z,75.04
2023-04-01T16:00:04.901Z,75.01
2023-04-01T16:01:42.261Z,75.13
2023-04-01T16:03:04.683Z,75.26
2023-04-01T16:04:25.738Z,75.13
2023-04-01T16:06:56.419Z,75.02
2023-04-01T16:08:11.475Z,74.95
2023-04-01T16:09:21.059Z,74.79
2023-04-01T16:11:59.488Z,74.61
2023-04-01T16:13:14.559Z,74.88
2023-04-01T16:14:27.865Z,74.38
2023-04-01T16:15:46.104Z,74.08
2023-04-01T16:17:20.011Z,73.85
2023-04-01T16:20:17.864Z,73.56
2023-04-01T16:21:53.041Z,72.84
2023-04-01T16:24:16.761Z,72.40
2023-04-01T16:25:38.007Z,72.23
2023-04-01T16:26:47.742Z,72.18
2023-04-01T16:28:10.320Z,72.16
2023-04-01T16:29:28.446Z,71.99
2023-04-01T16:30:42.798Z,72.13
2023-04-01T16:33:03.580Z,71.91
2023-04-01T16:34:29.050Z,71.93
2023-04-01T16:35:38.806Z,71.82
2023-04-01T16:36:50.917Z,72.06
2023-04-01T16:38:03.260Z,71.97
2023-04-01T16:39:35.332Z,72.23
2023-04-01T16:40:44.885Z,72.52
2023-04-01T16:41:57.267Z,72.54
2023-04-01T16:43:12.304Z,72.82
2023-04-01T16:44:23.393Z,73.18
2023-04-01T16:45:38.029Z,72.98
2023-04-01T16:46:43.239Z,73.05
2023-04-01T16:48:12.133Z,73.11
2023-04-01T16:49:27.211Z,73.25
2023-04-01T16:50:42.643Z,73.43
2023-04-01T16:51:49.459Z,73.33
2023-04-01T16:53:01.848Z,73.69
2023-04-01T16:54:17.615Z,74.00
2023-04-01T16:55:22.235Z,74.04
2023-04-01T16:56:27.424Z,74.21
2023-04-01T16:57:46.613Z,74.31
2023-04-01T16:59:19.783Z,74.64
2023-04-01T17:00:32.310Z,74.68
2023-04-01T17:01:55.918Z,74.84
2023-04-01T17:03:05.150Z,74.93
2023-04-01T17:05:25.501Z,75.30
2023-04-01T17:08:11.630Z,75.47
2023-04-01T17:11:10.343Z,75.57
2023-04-01T17:12:41.155Z,75.77
2023-04-01T17:13:53.434Z,75.84
2023-04-01T17:14:59.225Z,75.92
2023-04-01T17:16:23.709Z,76.13
2023-04-01T17:17:48.052Z,76.08
2023-04-01T17:18:59.992Z,76.19
2023-04-01T17:20:29.158Z,76.24
2023-04-01T17:23:14.333Z,76.30
2023-04-01T17:26:08.055Z,76.75
2023-04-01T17:27:35.052Z,77.10
2023-04-01T17:28:52.439Z,77.12
2023-04-01T17:30:21.847Z,77.10
2023-04-01T17:31:44.261Z,77.10
2023-04-01T17:33:06.115Z,77.18
2023-04-01T17:34:30.534Z,77.29
2023-04-01T17:35:45.823Z,77.46
2023-04-01T17:37:17.870Z,77.57
2023-04-01T17:38:53.194Z,77.53
2023-04-01T17:41:27.225Z,77.54
2023-04-01T17:42:44.906Z,77.72
2023-04-01T17:44:17.619Z,77.68
2023-04-01T17:46:38.655Z,77.68
2023-04-01T17:48:11.663Z,77.80
2023-04-01T17:49:35.658Z,77.82
2023-04-01T17:52:08.918Z,77.65
2023-04-01T17:53:33.328Z,77.71
2023-04-01T17:54:48.988Z,77.59
2023-04-01T17:55:57.967Z,77.60
2023-04-01T17:57:22.773Z,77.57
2023-04-01T17:59:01.550Z,77.56
2023-04-01T18:00:23.995Z,77.60
2023-04-01T18:01:30.625Z,77.56
2023-04-01T18:04:09.052Z,77.71
2023-04-01T18:05:21.218Z,77.96
2023-04-01T18:06:29.968Z,77.93
2023-04-01T18:07:51.535Z,77.90
2023-04-01T18:09:06.440Z,77.93
2023-04-01T18:10:29.035Z,77.88
2023-04-01T18:11:35.996Z,77.84
2023-04-01T18:14:06.238Z,78.10
2023-04-01T18:15:20.628Z,78.31
2023-04-01T18:16:32.235Z,78.33
2023-04-01T18:19:19.491Z,78.46
2023-04-01T18:22:02.204Z,78.47
2023-04-01T18:23:24.563Z,78.65
2023-04-01T18:25:47.990Z,78.56
2023-04-01T18:28:18.668Z,78.85
2023-04-01T18:29:30.566Z,78.97
2023-04-01T18:30:35.219Z,78.90
2023-04-01T18:32:53.199Z,79.08